TimeCDT,TemperatureF,Dew PointF,Humidity,Sea Level PressureIn,VisibilityMPH,Wind Direction,Wind SpeedMPH,Gust SpeedMPH,PrecipitationIn,Events,Conditions,WindDirDegrees,DateUTC
12:52 AM,81.0,59.0,47,29.88,10.0,South,17.3,23.0,N/A,,Clear,190,2013-08-26 05:52:00
1:52 AM,80.1,59.0,48,29.88,10.0,South,17.3,-,N/A,,Clear,180,2013-08-26 06:52:00
2:52 AM,79.0,59.0,50,29.87,10.0,South,13.8,-,N/A,,Clear,190,2013-08-26 07:52:00
3:52 AM,78.1,60.1,54,29.88,10.0,SW,9.2,-,N/A,,Clear,220,2013-08-26 08:52:00
4:52 AM,78.1,61.0,56,29.86,10.0,SSW,19.6,27.6,N/A,,Clear,200,2013-08-26 09:52:00
5:52 AM,75.9,61.0,60,29.87,10.0,SSW,15.0,-,N/A,,Clear,200,2013-08-26 10:52:00
6:52 AM,75.0,61.0,62,29.88,10.0,SSW,13.8,-,N/A,,Clear,200,2013-08-26 11:52:00
7:52 AM,75.0,61.0,62,29.89,10.0,SSW,11.5,-,N/A,,Clear,210,2013-08-26 12:52:00
8:52 AM,78.1,61.0,56,29.88,10.0,SSW,17.3,-,N/A,,Clear,210,2013-08-26 13:52:00
9:52 AM,82.9,61.0,47,29.89,10.0,SW,11.5,-,N/A,,Clear,230,2013-08-26 14:52:00
10:52 AM,87.1,61.0,41,29.88,10.0,SW,11.5,-,N/A,,Clear,220,2013-08-26 15:52:00
11:52 AM,91.9,61.0,35,29.88,10.0,SW,13.8,-,N/A,,Clear,230,2013-08-26 16:52:00
12:52 PM,95.0,59.0,30,29.86,10.0,SW,6.9,-,N/A,,Clear,220,2013-08-26 17:52:00
1:52 PM,97.0,59.0,28,29.84,10.0,West,8.1,16.1,N/A,,Clear,270,2013-08-26 18:52:00
2:52 PM,98.1,60.1,28,29.83,10.0,West,15.0,18.4,N/A,,Clear,260,2013-08-26 19:52:00
3:52 PM,99.0,57.0,25,29.82,10.0,SSW,10.4,-,N/A,,Clear,200,2013-08-26 20:52:00
4:52 PM,99.0,55.9,24,29.81,10.0,SSW,13.8,23.0,N/A,,Clear,210,2013-08-26 21:52:00
5:52 PM,99.0,57.9,25,29.81,10.0,SSW,12.7,20.7,N/A,,Clear,210,2013-08-26 22:52:00
6:52 PM,97.0,62.1,31,29.81,10.0,South,11.5,-,N/A,,Clear,190,2013-08-26 23:52:00
7:52 PM,91.9,64.9,41,29.81,10.0,South,9.2,-,N/A,,Clear,170,2013-08-27 00:52:00
8:52 PM,82.9,64.9,54,29.81,10.0,South,9.2,-,N/A,,Clear,190,2013-08-27 01:52:00
9:52 PM,81.0,60.1,49,29.82,10.0,SSW,10.4,-,N/A,,Clear,210,2013-08-27 02:52:00
10:52 PM,78.1,60.1,54,29.82,10.0,SSW,9.2,-,N/A,,Clear,210,2013-08-27 03:52:00
11:52 PM,75.0,60.1,60,29.82,10.0,SW,5.8,-,N/A,,Clear,230,2013-08-27 04:52:00